createdAt,value
2022-08-17T00:01:57.336Z,1
2022-08-17T00:03:57.558Z,1
2022-08-17T00:05:57.412Z,1
2022-08-17T00:07:58.230Z,1
2022-08-17T00:09:57.621Z,1
2022-08-17T00:12:42.339Z,1
2022-08-17T00:13:58.335Z,1
2022-08-17T00:15:58.742Z,1
2022-08-17T00:17:58.129Z,1
2022-08-17T00:20:02.116Z,1
2022-08-17T00:22:29.748Z,1
2022-08-17T00:24:01.740Z,1
2022-08-17T00:25:58.930Z,1
2022-08-17T00:27:58.280Z,1
2022-08-17T00:29:58.803Z,1
2022-08-17T00:31:58.592Z,1
2022-08-17T00:33:58.655Z,1
2022-08-17T00:36:05.912Z,1
2022-08-17T00:37:58.777Z,1
2022-08-17T00:40:06.204Z,1
2022-08-17T00:42:02.893Z,1
2022-08-17T00:43:58.987Z,1
2022-08-17T00:45:59.390Z,1
2022-08-17T00:47:59.331Z,1
2022-08-17T00:50:03.491Z,1
2022-08-17T00:51:59.520Z,1
2022-08-17T00:54:00.453Z,1
2022-08-17T00:58:03.721Z,1
2022-08-17T01:00:02.823Z,1
2022-08-17T01:02:03.782Z,1
2022-08-17T01:04:00.143Z,1
2022-08-17T01:08:00.548Z,1
2022-08-17T01:10:04.769Z,1
2022-08-17T01:12:01.134Z,1
2022-08-17T01:14:00.824Z,1
2022-08-17T01:16:00.772Z,1
2022-08-17T01:18:00.886Z,1
2022-08-17T01:20:01.494Z,1
2022-08-17T01:22:01.089Z,1
2022-08-17T01:24:07.971Z,1
2022-08-17T01:26:01.364Z,1
2022-08-17T01:28:01.544Z,1
2022-08-17T01:30:02.021Z,1
2022-08-17T01:32:02.429Z,1
2022-08-17T01:34:05.647Z,1
2022-08-17T01:36:01.618Z,1
2022-08-17T01:38:02.006Z,1
2022-08-17T01:40:05.989Z,1
2022-08-17T01:42:08.997Z,1
2022-08-17T01:44:06.142Z,1
2022-08-17T01:46:02.574Z,1
2022-08-17T01:48:09.238Z,1
2022-08-17T01:50:06.542Z,1
2022-08-17T01:52:03.548Z,1
2022-08-17T01:54:06.524Z,1
2022-08-17T01:56:03.574Z,1
2022-08-17T01:58:03.309Z,1
2022-08-17T02:00:03.235Z,1
2022-08-17T02:02:03.815Z,1
2022-08-17T02:04:03.115Z,1
2022-08-17T02:06:12.008Z,1
2022-08-17T02:08:03.248Z,1
2022-08-17T02:10:16.689Z,1
2022-08-17T02:12:37.543Z,1
2022-08-17T02:14:04.379Z,1
2022-08-17T02:16:03.992Z,1
2022-08-17T02:20:04.763Z,1
2022-08-17T02:22:08.365Z,1
2022-08-17T02:24:04.279Z,1
2022-08-17T02:26:04.396Z,1
2022-08-17T02:28:04.558Z,1
2022-08-17T02:30:04.512Z,1
2022-08-17T02:32:05.179Z,1
2022-08-17T02:34:08.141Z,1
2022-08-17T02:36:08.825Z,1
2022-08-17T02:38:08.886Z,1
2022-08-17T02:40:05.852Z,1
2022-08-17T02:42:09.262Z,1
2022-08-17T02:44:05.406Z,1
2022-08-17T02:46:06.359Z,1
2022-08-17T02:48:06.198Z,1
2022-08-17T02:50:09.782Z,1
2022-08-17T02:52:06.471Z,1
2022-08-17T02:54:39.026Z,1
2022-08-17T02:56:06.863Z,1
2022-08-17T02:58:06.266Z,1
2022-08-17T03:00:06.413Z,1
2022-08-17T03:02:06.533Z,1
2022-08-17T03:04:07.058Z,1
2022-08-17T03:08:06.637Z,1
2022-08-17T03:10:06.925Z,1
2022-08-17T03:12:10.767Z,0
2022-08-17T03:14:07.204Z,0
2022-08-17T03:16:07.483Z,0
2022-08-17T03:18:08.106Z,0
2022-08-17T03:20:07.201Z,0
2022-08-17T03:22:35.786Z,0
2022-08-17T03:24:14.997Z,0.1
2022-08-17T03:26:12.257Z,0.1
2022-08-17T03:28:11.180Z,0.1
2022-08-17T03:30:07.841Z,0.2
2022-08-17T03:32:08.171Z,0.3
2022-08-17T03:34:08.152Z,0.4
2022-08-17T03:36:08.152Z,0.6
2022-08-17T03:38:08.421Z,0.8
2022-08-17T03:40:08.604Z,1.1
2022-08-17T03:42:08.994Z,1.6
2022-08-17T03:44:12.562Z,2.2
2022-08-17T03:46:29.139Z,3.2
2022-08-17T03:48:08.730Z,4.5
2022-08-17T03:50:10.369Z,6.7
2022-08-17T03:52:09.258Z,9.5
2022-08-17T03:54:09.373Z,12.8
2022-08-17T03:56:09.661Z,18.2
2022-08-17T03:58:09.920Z,25.8
2022-08-17T04:00:09.551Z,34.8
2022-08-17T04:02:10.320Z,47
2022-08-17T04:04:10.789Z,60.3
2022-08-17T04:06:09.925Z,73.7
2022-08-17T04:08:13.372Z,94.6
2022-08-17T04:11:10.050Z,121.5
2022-08-17T04:13:10.264Z,148.4
2022-08-17T04:15:10.224Z,181.3
2022-08-17T04:17:10.624Z,210.6
2022-08-17T04:19:09.650Z,232.8
2022-08-17T04:21:13.612Z,270.4
2022-08-17T04:23:10.296Z,298.9
2022-08-17T04:25:10.537Z,330.3
2022-08-17T04:27:09.647Z,365
2022-08-17T04:29:13.908Z,403.4
2022-08-17T04:31:16.806Z,424.1
2022-08-17T04:33:17.280Z,468.7
2022-08-17T04:35:10.212Z,518
2022-08-17T04:37:10.778Z,572.5
2022-08-17T04:39:17.086Z,632.7
2022-08-17T04:41:10.259Z,699.2
2022-08-17T04:43:10.438Z,735.1
2022-08-17T04:45:13.821Z,772.8
2022-08-17T04:47:10.527Z,812.4
2022-08-17T04:49:17.106Z,812.4
2022-08-17T04:51:13.346Z,812.4
2022-08-17T04:53:13.947Z,854.1
2022-08-17T04:55:13.615Z,854.1
2022-08-17T04:57:13.783Z,897.8
2022-08-17T04:59:13.989Z,943.9
2022-08-17T05:01:10.075Z,1043.1
2022-08-17T05:03:17.203Z,1152.9
2022-08-17T05:05:10.348Z,1212
2022-08-17T05:07:21.171Z,1274.1
2022-08-17T05:09:10.358Z,1274.1
2022-08-17T05:11:13.939Z,1339.4
2022-08-17T05:13:09.725Z,1339.4
2022-08-17T05:15:09.975Z,1408.1
2022-08-17T05:17:11.404Z,1480.3
2022-08-17T05:19:09.969Z,1556.2
2022-08-17T05:21:13.837Z,1556.2
2022-08-17T05:23:09.956Z,1636
2022-08-17T05:25:09.758Z,1636
2022-08-17T05:27:09.993Z,1636
2022-08-17T05:29:13.908Z,1719.9
2022-08-17T05:31:17.166Z,1719.9
2022-08-17T05:33:09.948Z,1808
2022-08-17T05:35:10.405Z,1808
2022-08-17T05:37:13.729Z,1808
2022-08-17T05:39:10.786Z,1900.7
2022-08-17T05:41:10.099Z,1900.7
2022-08-17T05:43:09.911Z,1998.2
2022-08-17T05:45:16.816Z,1998.2
2022-08-17T05:47:10.603Z,1900.7
2022-08-17T05:49:09.873Z,1998.2
2022-08-17T05:51:09.867Z,1900.7
2022-08-17T05:53:10.389Z,1998.2
2022-08-17T05:55:09.883Z,1998.2
2022-08-17T05:57:16.272Z,2100.6
2022-08-17T05:59:09.992Z,2208.3
2022-08-17T06:01:10.429Z,2440.6
2022-08-17T06:03:13.798Z,2440.6
2022-08-17T06:05:09.982Z,2565.7
2022-08-17T06:07:09.766Z,2697.3
2022-08-17T06:09:10.401Z,2697.3
2022-08-17T06:11:10.414Z,2565.7
2022-08-17T06:13:13.529Z,2565.7
2022-08-17T06:15:16.953Z,2565.7
2022-08-17T06:17:10.198Z,2565.7
2022-08-17T06:19:10.535Z,2565.7
2022-08-17T06:21:09.760Z,3133.8
2022-08-17T06:23:10.886Z,4023.9
2022-08-17T06:25:10.489Z,4447.1
2022-08-17T06:27:10.025Z,4675.1
2022-08-17T06:29:10.514Z,4675.1
2022-08-17T06:31:14.025Z,4447.1
2022-08-17T06:33:10.366Z,5710.1
2022-08-17T06:35:10.343Z,6310.7
2022-08-17T06:37:09.968Z,6634.2
2022-08-17T06:41:17.165Z,7332
2022-08-17T06:43:17.195Z,7707.9
2022-08-17T06:45:09.928Z,8103.1
2022-08-17T06:47:10.508Z,5431.7
2022-08-17T06:49:10.013Z,3463.4
2022-08-17T06:51:09.804Z,3463.4
2022-08-17T06:53:10.700Z,3463.4
2022-08-17T06:55:17.894Z,3463.4
2022-08-17T06:57:13.864Z,3463.4
2022-08-17T06:59:09.801Z,3463.4
2022-08-17T07:01:16.747Z,3641
2022-08-17T07:03:13.599Z,3641
2022-08-17T07:05:09.936Z,3641
2022-08-17T07:07:10.029Z,3827.6
2022-08-17T07:09:10.576Z,3827.6
2022-08-17T07:11:10.496Z,3827.6
2022-08-17T07:13:10.350Z,3827.6
2022-08-17T07:15:17.432Z,4023.9
2022-08-17T07:17:10.504Z,4023.9
2022-08-17T07:19:17.566Z,4023.9
2022-08-17T07:21:17.044Z,4230.2
2022-08-17T07:23:09.703Z,4230.2
2022-08-17T07:25:09.896Z,4230.2
2022-08-17T07:27:10.031Z,4447.1
2022-08-17T07:29:10.817Z,4447.1
2022-08-17T07:31:10.807Z,4447.1
2022-08-17T07:33:12.624Z,4675.1
2022-08-17T07:35:11.079Z,4675.1
2022-08-17T07:39:10.502Z,4914.8
2022-08-17T07:41:10.472Z,4675.1
2022-08-17T07:43:18.752Z,4914.8
2022-08-17T07:45:10.491Z,5166.8
2022-08-17T07:47:13.894Z,5166.8
2022-08-17T07:49:10.528Z,5166.8
2022-08-17T07:51:10.618Z,5166.8
2022-08-17T07:53:10.939Z,5431.7
2022-08-17T07:55:13.808Z,5431.7
2022-08-17T07:57:09.914Z,5431.7
2022-08-17T07:59:13.872Z,5431.7
2022-08-17T08:01:13.841Z,5431.7
2022-08-17T08:05:10.202Z,5431.7
2022-08-17T08:07:13.619Z,5431.7
2022-08-17T08:09:13.742Z,5166.8
2022-08-17T08:11:09.874Z,5431.7
2022-08-17T08:13:12.236Z,5431.7
2022-08-17T08:15:10.609Z,5710.1
2022-08-17T08:17:10.614Z,5710.1
2022-08-17T08:19:09.787Z,5710.1
2022-08-17T08:25:09.909Z,6002.9
2022-08-17T08:27:10.426Z,6002.9
2022-08-17T08:29:13.718Z,6310.7
2022-08-17T08:31:09.792Z,6310.7
2022-08-17T08:33:10.495Z,6634.2
2022-08-17T08:35:10.764Z,6634.2
2022-08-17T08:37:16.174Z,6634.2
2022-08-17T08:39:10.459Z,6974.4
2022-08-17T08:41:10.450Z,6974.4
2022-08-17T08:43:10.479Z,6974.4
2022-08-17T08:45:09.886Z,7332
2022-08-17T08:47:17.120Z,7332
2022-08-17T08:49:14.360Z,7707.9
2022-08-17T08:51:10.034Z,7707.9
2022-08-17T08:53:09.878Z,7707.9
2022-08-17T08:55:10.583Z,7707.9
2022-08-17T08:57:27.963Z,7707.9
2022-08-17T08:59:10.875Z,7332
2022-08-17T09:01:15.678Z,7332
2022-08-17T09:03:13.771Z,7332
2022-08-17T09:05:14.119Z,7332
2022-08-17T09:07:10.671Z,5710.1
2022-08-17T09:09:10.488Z,6634.2
2022-08-17T09:11:13.273Z,7332
2022-08-17T09:15:12.928Z,7332
2022-08-17T09:17:18.402Z,7707.9
2022-08-17T09:19:09.932Z,7707.9
2022-08-17T09:21:14.038Z,7707.9
2022-08-17T09:23:10.722Z,7707.9
2022-08-17T09:25:13.552Z,8103.1
2022-08-17T09:27:10.316Z,8518.5
2022-08-17T09:29:10.502Z,8518.5
2022-08-17T09:31:10.718Z,8518.5
2022-08-17T09:33:10.046Z,8955.3
2022-08-17T09:35:09.948Z,9414.4
2022-08-17T09:37:09.909Z,9414.4
2022-08-17T09:39:14.044Z,9897.1
2022-08-17T09:41:13.941Z,9897.1
2022-08-17T09:43:10.052Z,9897.1
2022-08-17T09:45:09.915Z,9897.1
2022-08-17T09:47:10.648Z,10404.6
2022-08-17T09:49:09.988Z,10404.6
2022-08-17T09:51:10.619Z,9897.1
2022-08-17T09:53:10.698Z,9414.4
2022-08-17T09:55:13.773Z,9414.4
2022-08-17T09:57:28.931Z,8955.3
2022-08-17T09:59:11.370Z,9414.4
2022-08-17T10:01:10.339Z,9414.4
2022-08-17T10:03:10.992Z,9897.1
2022-08-17T10:05:13.837Z,9414.4
2022-08-17T10:07:10.678Z,9414.4
2022-08-17T10:09:10.116Z,9414.4
2022-08-17T10:11:10.880Z,9414.4
2022-08-17T10:13:18.300Z,9897.1
2022-08-17T10:15:10.777Z,9897.1
2022-08-17T10:17:10.182Z,10404.6
2022-08-17T10:19:10.173Z,10938
2022-08-17T10:21:10.732Z,11498.8
2022-08-17T10:23:10.248Z,12708.2
2022-08-17T10:25:21.964Z,13359.7
2022-08-17T10:27:10.379Z,14044.7
2022-08-17T10:29:14.165Z,14044.7
2022-08-17T10:31:33.486Z,12708.2
2022-08-17T10:33:10.763Z,12088.4
2022-08-17T10:35:10.208Z,12088.4
2022-08-17T10:37:10.191Z,12088.4
2022-08-17T10:39:13.866Z,12708.2
2022-08-17T10:41:13.599Z,12708.2
2022-08-17T10:43:17.567Z,13359.7
2022-08-17T10:45:10.178Z,12708.2
2022-08-17T10:47:10.103Z,14044.7
2022-08-17T10:49:10.810Z,13359.7
2022-08-17T10:51:13.810Z,14044.7
2022-08-17T10:53:10.106Z,14044.7
2022-08-17T10:55:10.726Z,12088.4
2022-08-17T10:57:10.732Z,11498.8
2022-08-17T11:01:10.365Z,13359.7
2022-08-17T11:03:10.050Z,14044.7
2022-08-17T11:05:10.767Z,11498.8
2022-08-17T11:07:14.232Z,11498.8
2022-08-17T11:09:17.368Z,12088.4
2022-08-17T11:11:10.142Z,12088.4
2022-08-17T11:13:10.454Z,12708.2
2022-08-17T11:15:10.466Z,11498.8
2022-08-17T11:17:09.936Z,11498.8
2022-08-17T11:19:11.027Z,11498.8
2022-08-17T11:21:10.199Z,11498.8
2022-08-17T11:23:12.159Z,11498.8
2022-08-17T11:25:10.192Z,11498.8
2022-08-17T11:27:11.974Z,11498.8
2022-08-17T11:29:10.889Z,10938
2022-08-17T11:31:17.497Z,11498.8
2022-08-17T11:33:14.332Z,13359.7
2022-08-17T11:35:14.044Z,13359.7
2022-08-17T11:37:10.748Z,12708.2
2022-08-17T11:39:11.776Z,13359.7
2022-08-17T11:41:13.790Z,11498.8
2022-08-17T11:43:10.781Z,11498.8
2022-08-17T11:45:10.802Z,11498.8
2022-08-17T11:47:10.334Z,11498.8
2022-08-17T11:49:14.542Z,12088.4
2022-08-17T11:53:10.196Z,11498.8
2022-08-17T11:55:34.310Z,11498.8
2022-08-17T11:57:10.178Z,11498.8
2022-08-17T11:59:14.377Z,10938
2022-08-17T12:01:10.724Z,10404.6
2022-08-17T12:03:10.894Z,10404.6
2022-08-17T12:05:11.829Z,12088.4
2022-08-17T12:07:10.802Z,13359.7
2022-08-17T12:09:13.398Z,14044.7
2022-08-17T12:11:10.203Z,14764.8
2022-08-17T12:13:10.147Z,14044.7
2022-08-17T12:15:11.990Z,13359.7
2022-08-17T12:17:10.116Z,14044.7
2022-08-17T12:19:10.893Z,14044.7
2022-08-17T12:21:10.050Z,13359.7
2022-08-17T12:23:10.380Z,13359.7
2022-08-17T12:25:10.460Z,14044.7
2022-08-17T12:27:10.679Z,14044.7
2022-08-17T12:29:17.995Z,14764.8
2022-08-17T12:31:17.340Z,14044.7
2022-08-17T12:33:24.493Z,14044.7
2022-08-17T12:35:10.107Z,14044.7
2022-08-17T12:37:10.316Z,13359.7
2022-08-17T12:39:13.175Z,13359.7
2022-08-17T12:41:10.271Z,13359.7
2022-08-17T12:43:10.154Z,12708.2
